Main page
METAR-TAF:

METAR-TAF

Airports :

Mehrabad International Airport

Tehran, Iran

latitude: 35-41N, longitude: 051-21E, elevation: 1204 m

Current weather observation

The report was made 43 minutes ago, at 21:30 UTC
Calm wind
Temperature 2°C
Humidity 64%
Pressure 1016 hPa
Visibility 10 km or more
no clouds below 1500 m and no cumulonimbus

METAR: OIII 222130Z 00000KT CAVOK 02/M04 Q1016 A3001

Time: 01:43 (22:13 UTC)

Forecast

The report was made 4 hours and 43 minutes ago, at 17:30 UTC
Forecast valid from 22 at 18 UTC to 23 at 24 UTC
Wind 6 kt from the Northwest
Visibility: 8000 m
Becoming
from 23 at 03 UTC to 23 at 05 UTC
Visibility: 4000 m
haze
Becoming
from 23 at 10 UTC to 23 at 12 UTC
Visibility: 6000 m

TAF: OIII 221730Z 2218/2324 32006KT 8000 NSC BECMG 2303/2305 4000 HZ BECMG 2310/2312 6000 NSC

Weather observations and forecasts of more than 4000 airports (METAR and TAF reports).

The available stations are represented by yellow and red dots on the map.

Hover mouse over dot to see the name of the station.

Then click to see weather observations and forecasts.

To change the map : click on the green buttons with a black cross to zoom in, on the green button with a dash to zoom out, or on the green arrows for adjacent maps.


METAR-TAF: